createdAt,value
2023-02-12T00:00:27.400Z,21.77
2023-02-12T00:03:30.579Z,16.90
2023-02-12T00:06:33.920Z,15.97
2023-02-12T00:09:38.746Z,14.93
2023-02-12T00:12:41.882Z,18.17
2023-02-12T00:15:45.103Z,18.93
2023-02-12T00:18:48.961Z,21.70
2023-02-12T00:21:52.106Z,17.73
2023-02-12T00:24:56.871Z,14.60
2023-02-12T00:28:00.147Z,13.70
2023-02-12T00:31:07.258Z,16.70
2023-02-12T00:34:12.430Z,14.77
2023-02-12T00:37:16.108Z,19.03
2023-02-12T00:40:20.881Z,18.07
2023-02-12T00:43:24.093Z,18.50
2023-02-12T00:46:27.285Z,25.03
2023-02-12T00:49:34.129Z,17.03
2023-02-12T00:52:37.334Z,18.77
2023-02-12T00:55:42.307Z,14.67
2023-02-12T00:58:45.658Z,19.20
2023-02-12T01:01:48.850Z,15.53
2023-02-12T01:04:52.194Z,20.00
2023-02-12T01:07:56.330Z,20.57
2023-02-12T01:11:03.407Z,17.20
2023-02-12T01:14:06.869Z,15.30
2023-02-12T01:17:10.219Z,18.07
2023-02-12T01:20:17.439Z,19.07
2023-02-12T01:23:20.589Z,15.07
2023-02-12T01:26:25.480Z,13.50
2023-02-12T01:29:28.659Z,13.60
2023-02-12T01:32:31.830Z,16.03
2023-02-12T01:35:35.007Z,12.40
2023-02-12T01:38:38.304Z,15.43
2023-02-12T01:41:44.648Z,12.50
2023-02-12T01:45:33.390Z,12.53
2023-02-12T01:48:40.523Z,11.20
2023-02-12T01:51:45.406Z,12.40
2023-02-12T01:54:49.755Z,14.27
2023-02-12T01:57:54.381Z,14.10
2023-02-12T02:00:57.803Z,16.67
2023-02-12T02:04:03.550Z,12.70
2023-02-12T02:07:09.282Z,17.10
2023-02-12T02:10:12.624Z,11.83
2023-02-12T02:13:34.958Z,10.97
2023-02-12T02:16:40.352Z,13.73
2023-02-12T02:20:02.983Z,12.23
2023-02-12T02:23:47.253Z,10.70
2023-02-12T02:27:17.279Z,12.10
2023-02-12T02:30:36.267Z,12.83
2023-02-12T02:33:43.094Z,14.50
2023-02-12T02:37:00.456Z,10.80
2023-02-12T02:40:10.904Z,11.70
2023-02-12T02:43:19.487Z,10.23
2023-02-12T02:46:29.001Z,10.83
2023-02-12T02:49:40.294Z,11.37
2023-02-12T02:52:50.386Z,12.07
2023-02-12T02:55:56.445Z,12.07
2023-02-12T02:59:03.731Z,11.20
2023-02-12T03:02:13.848Z,11.47
2023-02-12T03:05:21.574Z,11.80
2023-02-12T03:08:28.557Z,12.50
2023-02-12T03:11:34.926Z,15.43
2023-02-12T03:14:42.026Z,10.90
2023-02-12T03:17:49.288Z,11.37
2023-02-12T03:20:56.611Z,9.13
2023-02-12T03:24:05.554Z,8.73
2023-02-12T03:27:11.638Z,11.57
2023-02-12T03:30:15.889Z,10.80
2023-02-12T03:33:30.610Z,12.27
2023-02-12T03:36:41.081Z,11.17
2023-02-12T03:39:50.815Z,11.87
2023-02-12T03:43:01.309Z,11.73
2023-02-12T03:46:15.306Z,10.00
2023-02-12T03:49:25.336Z,10.13
2023-02-12T03:52:30.142Z,12.50
2023-02-12T03:55:35.556Z,10.33
2023-02-12T03:58:41.112Z,12.20
2023-02-12T04:01:44.621Z,9.70
2023-02-12T04:04:49.756Z,11.40
2023-02-12T04:07:54.828Z,12.20
2023-02-12T04:11:07.595Z,10.67
2023-02-12T04:14:19.197Z,10.87
2023-02-12T04:17:30.911Z,13.83
2023-02-12T04:20:43.356Z,12.87
2023-02-12T04:23:51.530Z,8.87
2023-02-12T04:27:00.193Z,11.43
2023-02-12T04:30:10.322Z,12.07
2023-02-12T04:33:19.137Z,9.67
2023-02-12T04:36:27.679Z,11.40
2023-02-12T04:39:35.089Z,11.60
2023-02-12T04:42:43.718Z,12.83
2023-02-12T04:45:46.854Z,11.50
2023-02-12T04:48:54.860Z,11.70
2023-02-12T04:51:59.461Z,16.53
2023-02-12T04:55:02.641Z,11.50
2023-02-12T04:58:06.012Z,12.67
2023-02-12T05:01:10.263Z,13.97
2023-02-12T05:04:15.538Z,13.90
2023-02-12T05:07:20.138Z,11.03
2023-02-12T05:10:23.297Z,13.73
2023-02-12T05:13:26.513Z,10.00
2023-02-12T05:16:29.754Z,11.07
2023-02-12T05:19:32.984Z,11.23
2023-02-12T05:22:37.534Z,13.90
2023-02-12T05:25:40.667Z,11.30
2023-02-12T05:28:43.829Z,10.37
2023-02-12T05:31:47.411Z,11.97
2023-02-12T05:34:50.766Z,11.80
2023-02-12T05:37:55.273Z,11.73
2023-02-12T05:41:03.353Z,14.20
2023-02-12T05:44:07.711Z,10.80
2023-02-12T05:47:10.910Z,10.50
2023-02-12T05:50:14.085Z,12.80
2023-02-12T05:53:18.650Z,13.03
2023-02-12T05:56:24.106Z,12.20
2023-02-12T05:59:27.284Z,14.60
2023-02-12T06:02:30.495Z,13.23
2023-02-12T06:05:33.649Z,16.43
2023-02-12T06:08:38.485Z,13.63
2023-02-12T06:11:42.215Z,15.00
2023-02-12T06:14:45.392Z,11.60
2023-02-12T06:17:48.547Z,11.90
2023-02-12T06:20:51.751Z,11.40
2023-02-12T06:23:56.324Z,12.87
2023-02-12T06:26:59.457Z,11.50
2023-02-12T06:30:02.606Z,16.47
2023-02-12T06:33:05.819Z,11.10
2023-02-12T06:36:09.130Z,10.00
2023-02-12T06:39:14.799Z,9.63
2023-02-12T06:42:19.072Z,11.67
2023-02-12T06:45:22.222Z,10.27
2023-02-12T06:48:25.374Z,10.30
2023-02-12T06:51:30.197Z,12.17
2023-02-12T06:54:34.758Z,16.03
2023-02-12T06:57:37.912Z,14.50
2023-02-12T07:00:41.110Z,11.63
2023-02-12T07:03:45.749Z,14.23
2023-02-12T07:06:48.912Z,14.17
2023-02-12T07:09:53.402Z,16.47
2023-02-12T07:12:56.535Z,13.70
2023-02-12T07:15:59.702Z,11.17
2023-02-12T07:19:02.914Z,15.40
2023-02-12T07:22:06.220Z,10.50
2023-02-12T07:25:10.820Z,14.20
2023-02-12T07:28:14.005Z,12.40
2023-02-12T07:31:19.980Z,11.83
2023-02-12T07:34:23.263Z,9.40
2023-02-12T07:37:26.566Z,12.17
2023-02-12T07:40:31.073Z,13.23
2023-02-12T07:43:34.324Z,9.13
2023-02-12T07:46:39.529Z,9.83
2023-02-12T07:49:42.744Z,10.30
2023-02-12T07:52:46.042Z,12.90
2023-02-12T07:55:50.569Z,10.53
2023-02-12T07:58:55.101Z,10.80
2023-02-12T08:01:58.664Z,11.30
2023-02-12T08:05:01.916Z,10.70
2023-02-12T08:08:05.320Z,12.63
2023-02-12T08:11:11.945Z,13.97
2023-02-12T08:14:16.767Z,18.30
2023-02-12T08:17:19.943Z,31.67
2023-02-12T08:20:23.080Z,22.80
2023-02-12T08:23:26.246Z,20.53
2023-02-12T08:26:32.416Z,19.30
2023-02-12T08:29:35.794Z,15.67
2023-02-12T08:32:38.978Z,13.93
2023-02-12T08:35:42.173Z,11.80
2023-02-12T08:38:46.925Z,12.17
2023-02-12T08:41:52.049Z,19.00
2023-02-12T08:44:55.367Z,27.87
2023-02-12T08:47:58.515Z,40.70
2023-02-12T08:51:09.746Z,20.70
2023-02-12T08:54:18.396Z,18.40
2023-02-12T08:57:22.908Z,41.17
2023-02-12T09:00:26.244Z,39.20
2023-02-12T09:03:29.888Z,42.90
2023-02-12T09:06:36.170Z,31.40
2023-02-12T09:09:39.322Z,17.80
2023-02-12T09:12:43.837Z,20.20
2023-02-12T09:15:47.181Z,18.60
2023-02-12T09:18:50.374Z,31.23
2023-02-12T09:21:56.059Z,25.07
2023-02-12T09:24:59.718Z,14.33
2023-02-12T09:28:04.530Z,11.30
2023-02-12T09:31:08.582Z,20.17
2023-02-12T09:34:11.975Z,15.77
2023-02-12T09:37:15.470Z,19.20
2023-02-12T09:40:20.980Z,18.50
2023-02-12T09:43:33.721Z,27.87
2023-02-12T09:46:43.276Z,21.43
2023-02-12T09:50:13.707Z,19.30
2023-02-12T09:53:19.374Z,21.17
2023-02-12T09:56:25.980Z,17.70
2023-02-12T09:59:37.756Z,18.90
2023-02-12T10:02:41.879Z,17.13
2023-02-12T10:05:49.298Z,16.03
2023-02-12T10:09:06.076Z,13.73
2023-02-12T10:12:17.159Z,12.48
2023-02-12T10:15:35.394Z,10.77
2023-02-12T10:18:58.195Z,13.50
2023-02-12T10:22:11.868Z,10.00
2023-02-12T10:25:25.423Z,9.98
2023-02-12T10:28:38.806Z,11.65
2023-02-12T10:31:47.192Z,4.65
2023-02-12T10:34:52.488Z,7.05
2023-02-12T10:38:00.621Z,4.72
2023-02-12T10:41:03.922Z,4.95
2023-02-12T10:44:08.704Z,5.88
2023-02-12T10:47:19.783Z,12.73
2023-02-12T10:50:36.003Z,13.70
2023-02-12T10:53:41.403Z,12.35
2023-02-12T10:56:44.943Z,11.73
2023-02-12T10:59:49.941Z,12.38
2023-02-12T11:03:07.417Z,13.02
2023-02-12T11:06:17.106Z,15.55
2023-02-12T11:09:30.352Z,14.57
2023-02-12T11:12:37.107Z,12.45
2023-02-12T11:15:50.015Z,10.63
2023-02-12T11:19:02.296Z,9.75
2023-02-12T11:22:08.489Z,9.23
2023-02-12T11:25:17.592Z,10.02
2023-02-12T11:28:21.740Z,8.15
2023-02-12T11:31:29.833Z,8.63
2023-02-12T11:34:36.456Z,7.40
2023-02-12T11:37:44.161Z,6.85
2023-02-12T11:40:49.236Z,6.40
2023-02-12T11:43:55.330Z,6.15
2023-02-12T11:47:03.204Z,5.85
2023-02-12T11:50:19.546Z,5.40
2023-02-12T11:53:27.417Z,6.63
2023-02-12T11:56:43.306Z,7.05
2023-02-12T11:59:48.260Z,6.93
2023-02-12T12:02:58.881Z,9.25
2023-02-12T12:06:09.331Z,15.20
2023-02-12T12:09:19.032Z,6.88
2023-02-12T12:12:27.279Z,5.63
2023-02-12T12:15:52.543Z,7.45
2023-02-12T12:19:18.377Z,6.55
2023-02-12T12:22:45.961Z,8.18
2023-02-12T12:25:53.840Z,7.55
2023-02-12T12:29:06.762Z,8.05
2023-02-12T12:32:15.528Z,16.90
2023-02-12T12:35:23.310Z,4.88
2023-02-12T12:38:39.704Z,5.88
2023-02-12T12:42:08.881Z,5.20
2023-02-12T12:45:26.539Z,4.70
2023-02-12T12:48:45.590Z,2.53
2023-02-12T12:52:07.541Z,2.20
2023-02-12T12:55:33.563Z,1.38
2023-02-12T12:58:51.822Z,2.78
2023-02-12T13:02:18.558Z,1.50
2023-02-12T13:05:55.574Z,2.80
2023-02-12T13:09:17.774Z,0.87
2023-02-12T13:12:49.591Z,1.50
2023-02-12T13:15:59.505Z,2.93
2023-02-12T13:19:08.178Z,1.30
2023-02-12T13:22:18.508Z,2.43
2023-02-12T13:25:28.551Z,1.83
2023-02-12T13:28:39.249Z,16.23
2023-02-12T13:31:49.687Z,1.60
2023-02-12T13:34:55.961Z,2.27
2023-02-12T13:38:02.065Z,1.90
2023-02-12T13:41:10.296Z,1.57
2023-02-12T13:44:31.830Z,1.53
2023-02-12T13:47:48.235Z,1.65
2023-02-12T13:51:02.944Z,1.20
2023-02-12T13:54:16.674Z,1.20
2023-02-12T13:57:22.442Z,1.50
2023-02-12T14:01:00.394Z,2.10
2023-02-12T14:04:30.558Z,1.33
2023-02-12T14:07:45.292Z,0.97
2023-02-12T14:11:06.175Z,1.00
2023-02-12T14:14:10.656Z,0.87
2023-02-12T14:17:53.762Z,1.00
2023-02-12T14:21:44.575Z,0.90
2023-02-12T14:24:56.268Z,0.93
2023-02-12T14:28:09.007Z,2.00
2023-02-12T14:31:47.130Z,1.87
2023-02-12T14:34:52.781Z,0.70
2023-02-12T14:37:59.876Z,1.00
2023-02-12T14:41:37.897Z,1.13
2023-02-12T14:44:48.283Z,1.10
2023-02-12T14:47:53.778Z,2.00
2023-02-12T14:51:02.009Z,1.00
2023-02-12T14:54:15.899Z,0.97
2023-02-12T14:57:30.196Z,1.50
2023-02-12T15:00:38.758Z,1.23
2023-02-12T15:03:52.278Z,0.80
2023-02-12T15:07:08.622Z,2.10
2023-02-12T15:10:20.407Z,1.27
2023-02-12T15:13:31.275Z,1.70
2023-02-12T15:16:47.883Z,1.33
2023-02-12T15:19:57.842Z,0.83
2023-02-12T15:23:26.235Z,0.60
2023-02-12T15:26:36.528Z,0.77
2023-02-12T15:29:44.452Z,1.57
2023-02-12T15:32:49.679Z,1.83
2023-02-12T15:35:55.242Z,1.13
2023-02-12T15:39:05.069Z,2.23
2023-02-12T15:42:31.766Z,0.80
2023-02-12T15:45:39.302Z,0.97
2023-02-12T15:48:44.240Z,1.07
2023-02-12T15:51:48.153Z,2.03
2023-02-12T15:54:54.988Z,1.67
2023-02-12T15:58:02.482Z,1.90
2023-02-12T16:01:08.910Z,1.53
2023-02-12T16:04:14.078Z,1.40
2023-02-12T16:07:20.333Z,4.30
2023-02-12T16:10:27.846Z,1.90
2023-02-12T16:13:36.687Z,3.80
2023-02-12T16:16:46.478Z,9.77
2023-02-12T16:19:57.599Z,28.10
2023-02-12T16:23:08.107Z,21.63
2023-02-12T16:26:19.576Z,7.80
2023-02-12T16:29:24.383Z,14.23
2023-02-12T16:32:37.187Z,8.93
2023-02-12T16:35:42.092Z,4.73
2023-02-12T16:38:48.637Z,8.73
2023-02-12T16:41:58.916Z,10.00
2023-02-12T16:45:04.061Z,7.40
2023-02-12T16:48:26.195Z,6.63
2023-02-12T16:51:34.554Z,7.63
2023-02-12T16:54:38.359Z,10.33
2023-02-12T16:57:46.994Z,13.37
2023-02-12T17:00:51.918Z,4.40
2023-02-12T17:03:58.252Z,6.53
2023-02-12T17:07:05.362Z,5.90
2023-02-12T17:10:14.270Z,5.03
2023-02-12T17:13:22.624Z,6.83
2023-02-12T17:16:31.575Z,5.60
2023-02-12T17:19:37.145Z,10.90
2023-02-12T17:22:51.409Z,10.30
2023-02-12T17:25:58.442Z,7.80
2023-02-12T17:29:09.311Z,3.83
2023-02-12T17:32:17.192Z,7.40
2023-02-12T17:35:22.873Z,25.10
2023-02-12T17:38:29.054Z,15.20
2023-02-12T17:41:36.131Z,6.50
2023-02-12T17:44:44.786Z,9.80
2023-02-12T17:47:50.510Z,14.23
2023-02-12T17:50:58.526Z,15.77
2023-02-12T17:54:04.685Z,24.43
2023-02-12T17:57:16.069Z,16.87
2023-02-12T18:00:30.409Z,18.13
2023-02-12T18:03:35.848Z,15.03
2023-02-12T18:06:40.533Z,13.00
2023-02-12T18:09:45.160Z,14.43
2023-02-12T18:12:51.491Z,12.40
2023-02-12T18:15:57.619Z,12.87
2023-02-12T18:19:06.590Z,12.43
2023-02-12T18:22:12.233Z,10.47
2023-02-12T18:25:18.884Z,10.53
2023-02-12T18:28:23.932Z,11.87
2023-02-12T18:31:30.630Z,13.10
2023-02-12T18:34:38.314Z,12.40
2023-02-12T18:37:45.949Z,12.67
2023-02-12T18:40:50.907Z,17.90
2023-02-12T18:43:56.694Z,16.63
2023-02-12T18:47:07.891Z,15.73
2023-02-12T18:50:14.238Z,14.23
2023-02-12T18:53:20.354Z,12.43
2023-02-12T18:56:26.124Z,11.57
2023-02-12T18:59:31.338Z,16.70
2023-02-12T19:02:37.916Z,12.50
2023-02-12T19:05:43.854Z,10.87
2023-02-12T19:08:48.892Z,11.70
2023-02-12T19:11:56.611Z,16.07
2023-02-12T19:15:01.514Z,18.87
2023-02-12T19:18:08.827Z,13.07
2023-02-12T19:21:17.440Z,12.67
2023-02-12T19:24:22.410Z,15.17
2023-02-12T19:27:27.674Z,17.60
2023-02-12T19:30:32.545Z,16.77
2023-02-12T19:33:39.885Z,14.10
2023-02-12T19:36:46.550Z,13.73
2023-02-12T19:39:51.775Z,15.57
2023-02-12T19:43:00.528Z,16.07
2023-02-12T19:46:07.109Z,15.07
2023-02-12T19:49:19.839Z,13.23
2023-02-12T19:52:25.296Z,20.50
2023-02-12T19:55:30.702Z,22.37
2023-02-12T19:58:35.642Z,17.20
2023-02-12T20:01:40.825Z,15.30
2023-02-12T20:04:51.229Z,13.30
2023-02-12T20:08:03.600Z,13.73
2023-02-12T20:11:10.929Z,12.43
2023-02-12T20:14:20.222Z,68.07
2023-02-12T20:17:24.336Z,29.83
2023-02-12T20:20:30.045Z,13.40
2023-02-12T20:23:36.090Z,14.20
2023-02-12T20:26:42.945Z,14.30
2023-02-12T20:29:49.476Z,14.60
2023-02-12T20:32:55.892Z,19.33
2023-02-12T20:36:02.950Z,15.70
2023-02-12T20:39:13.096Z,12.80
2023-02-12T20:42:19.084Z,15.57
2023-02-12T20:45:23.901Z,12.57
2023-02-12T20:48:28.837Z,12.30
2023-02-12T20:51:37.637Z,12.27
2023-02-12T20:54:42.306Z,13.00
2023-02-12T20:57:47.258Z,15.90
2023-02-12T21:00:51.472Z,13.43
2023-02-12T21:03:56.347Z,12.90
2023-02-12T21:07:03.088Z,13.60
2023-02-12T21:10:09.883Z,10.50
2023-02-12T21:13:14.691Z,10.87
2023-02-12T21:16:24.371Z,8.13
2023-02-12T21:19:29.175Z,9.67
2023-02-12T21:22:35.248Z,10.60
2023-02-12T21:25:40.281Z,8.33
2023-02-12T21:28:45.312Z,10.50
2023-02-12T21:31:51.039Z,8.40
2023-02-12T21:34:56.106Z,8.90
2023-02-12T21:38:01.572Z,7.80
2023-02-12T21:41:09.527Z,7.60
2023-02-12T21:44:16.391Z,10.23
2023-02-12T21:47:20.158Z,11.70
2023-02-12T21:50:24.017Z,8.80
2023-02-12T21:53:29.056Z,8.67
2023-02-12T21:56:33.645Z,6.80
2023-02-12T21:59:37.321Z,6.73
2023-02-12T22:02:40.803Z,6.40
2023-02-12T22:05:44.136Z,7.07
2023-02-12T22:08:49.268Z,8.53
2023-02-12T22:11:53.195Z,8.30
2023-02-12T22:14:56.307Z,8.30
2023-02-12T22:17:59.488Z,10.70
2023-02-12T22:21:03.101Z,7.83
2023-02-12T22:24:09.907Z,8.33
2023-02-12T22:27:13.054Z,9.20
2023-02-12T22:30:16.732Z,7.83
2023-02-12T22:33:19.868Z,7.03
2023-02-12T22:36:25.062Z,8.07
2023-02-12T22:39:29.881Z,8.77
2023-02-12T22:42:33.082Z,14.33
2023-02-12T22:45:36.259Z,7.80
2023-02-12T22:48:39.983Z,6.47
2023-02-12T22:51:43.422Z,8.20
2023-02-12T22:54:47.912Z,7.50
2023-02-12T22:57:52.010Z,10.23
2023-02-12T23:00:55.489Z,8.13
2023-02-12T23:03:59.696Z,9.57
2023-02-12T23:07:02.913Z,8.17
2023-02-12T23:10:08.788Z,8.13
2023-02-12T23:13:21.330Z,8.30
2023-02-12T23:16:31.241Z,6.23
2023-02-12T23:19:34.435Z,8.90
2023-02-12T23:22:37.634Z,6.97
2023-02-12T23:25:42.984Z,9.83
2023-02-12T23:28:46.166Z,6.10
2023-02-12T23:31:49.445Z,9.97
2023-02-12T23:34:52.611Z,8.30
2023-02-12T23:37:55.788Z,8.67
2023-02-12T23:41:00.301Z,7.53
2023-02-12T23:44:03.774Z,7.33
2023-02-12T23:47:07.212Z,10.20
2023-02-12T23:50:11.079Z,7.43
2023-02-12T23:53:14.633Z,8.03
2023-02-12T23:56:19.168Z,9.50
2023-02-12T23:59:22.466Z,10.77
